Aérodrome :
LOGIN :

S'inscrire | Disclaimer

   EN    FR    IT 

 










Légende :    VFR   VFR Marginal   IFR   IFR Intensif   IFR Très Intensif
Visi : 
Plafond : 
>= 8 km
>= 3000ft
5 à 8 km
1000 à 3000 ft
1500m à 5 km
500 à 1000 ft
800 à 1500m
200 à 500 ft
< 800m
< 200 ft
Symboles :   Orages  Brouillard  Fortes neiges  Fortes précipitations  Vent > 20 kt
SIGMETs :   Divers  Orages  Givrage  Turbulence  Onde Orograph.  Cendres Volcan.






- Altitude de l'aérodrome : 53 ft
- Code IATA : HAM


EDDH - Hamburg

DERNIER METAR :
  • 212050Z 12005KT 2500 -RADZ BR BKN002 08/08 Q1008 NOSIG

METARs EXPIRÉS :
  • 212020Z 09004KT 1800 -RADZ BR BKN002 08/08 Q1008 NOSIG
  • 211950Z 09005KT 2000 -RADZ BR BKN002 08/08 Q1008 NOSIG
  • 211920Z 09005KT 060V120 3200 -RA BR FEW002 BKN003 08/08 Q1009 NOSIG
  • 211850Z 08004KT 3000 -DZ BR BKN003 08/07 Q1009 NOSIG
  • 211820Z 09005KT 2800 -RA BR BKN003 08/07 Q1009 NOSIG

TAF TAF EDDH
Valide du 21 à 18h jusqu'au 23 à 00h UTC


211700Z 2118/2224 11005KT 3500 -RA OVC004
TEMPO 2118/2121 2000
PROB30
TEMPO 2118/2121 BKN001
TEMPO 2121/2201 2000 RA SCT005 BKN015
BECMG 2201/2203 17003KT 6000 FEW005
PROB30
TEMPO 2212/2217 11007KT 4500 BR BKN004
BECMG 2217/2220 2000 BR OVC002



MET'MAP, la Météo Aéronautique d'un coup d'oeil ! - Copyright ORBIFLY Décembre 2007 - Disclaimer

ORBIFLY MET'MAP TEAM :

Programmation & Développement : Alexandra Zaïnal
Conception & Développement : Baudouin d'Aumeries
Co-Programmation & Développement : Marc-Olivier Méhu
Soutien technique & logistique : Manuel Goepfert

Contact : metmap@orbifly.com




SOURCES & CREDITS :

   NOAA